sensor_id;sensor_type;location;lat;lon;timestamp;P1;durP1;ratioP1;P2;durP2;ratioP2
72235;SDS011;60146;52.498;13.462;2023-04-15T00:01:07;28.07;;;11.77;;
72235;SDS011;60146;52.498;13.462;2023-04-15T00:03:33;27.93;;;12.00;;
72235;SDS011;60146;52.498;13.462;2023-04-15T00:05:59;28.00;;;12.00;;
72235;SDS011;60146;52.498;13.462;2023-04-15T00:08:25;29.37;;;12.03;;
72235;SDS011;60146;52.498;13.462;2023-04-15T00:10:51;25.53;;;11.97;;
72235;SDS011;60146;52.498;13.462;2023-04-15T00:13:17;27.30;;;11.57;;
72235;SDS011;60146;52.498;13.462;2023-04-15T00:15:42;27.60;;;12.03;;
72235;SDS011;60146;52.498;13.462;2023-04-15T00:18:07;27.30;;;12.27;;
72235;SDS011;60146;52.498;13.462;2023-04-15T00:20:33;28.17;;;13.13;;
72235;SDS011;60146;52.498;13.462;2023-04-15T00:22:59;30.20;;;12.83;;
72235;SDS011;60146;52.498;13.462;2023-04-15T00:25:24;28.30;;;13.47;;
72235;SDS011;60146;52.498;13.462;2023-04-15T00:27:50;31.10;;;12.90;;
72235;SDS011;60146;52.498;13.462;2023-04-15T00:30:15;28.10;;;13.03;;
72235;SDS011;60146;52.498;13.462;2023-04-15T00:32:41;29.60;;;13.30;;
72235;SDS011;60146;52.498;13.462;2023-04-15T00:35:06;28.57;;;12.57;;
72235;SDS011;60146;52.498;13.462;2023-04-15T00:37:32;34.17;;;13.70;;
72235;SDS011;60146;52.498;13.462;2023-04-15T00:39:59;31.40;;;12.80;;
72235;SDS011;60146;52.498;13.462;2023-04-15T00:42:24;32.77;;;13.47;;
72235;SDS011;60146;52.498;13.462;2023-04-15T00:44:50;34.10;;;13.43;;
72235;SDS011;60146;52.498;13.462;2023-04-15T00:47:16;32.73;;;13.47;;
72235;SDS011;60146;52.498;13.462;2023-04-15T00:49:42;28.73;;;12.97;;
72235;SDS011;60146;52.498;13.462;2023-04-15T00:52:07;29.73;;;13.13;;
72235;SDS011;60146;52.498;13.462;2023-04-15T00:54:33;31.23;;;14.37;;
72235;SDS011;60146;52.498;13.462;2023-04-15T00:56:58;30.40;;;13.23;;
72235;SDS011;60146;52.498;13.462;2023-04-15T00:59:24;35.60;;;14.03;;
72235;SDS011;60146;52.498;13.462;2023-04-15T01:01:50;31.30;;;13.10;;
72235;SDS011;60146;52.498;13.462;2023-04-15T01:04:16;35.83;;;13.97;;
72235;SDS011;60146;52.498;13.462;2023-04-15T01:06:41;32.70;;;12.93;;
72235;SDS011;60146;52.498;13.462;2023-04-15T01:09:07;35.27;;;13.77;;
72235;SDS011;60146;52.498;13.462;2023-04-15T01:11:32;34.20;;;13.90;;
72235;SDS011;60146;52.498;13.462;2023-04-15T01:13:58;33.60;;;13.60;;
72235;SDS011;60146;52.498;13.462;2023-04-15T01:16:23;33.57;;;14.37;;
72235;SDS011;60146;52.498;13.462;2023-04-15T01:18:50;35.47;;;14.67;;
72235;SDS011;60146;52.498;13.462;2023-04-15T01:21:16;38.97;;;15.40;;
72235;SDS011;60146;52.498;13.462;2023-04-15T01:23:42;34.40;;;13.70;;
72235;SDS011;60146;52.498;13.462;2023-04-15T01:26:11;34.20;;;13.67;;
72235;SDS011;60146;52.498;13.462;2023-04-15T01:28:36;37.07;;;15.43;;
72235;SDS011;60146;52.498;13.462;2023-04-15T01:31:08;39.13;;;15.00;;
72235;SDS011;60146;52.498;13.462;2023-04-15T01:33:38;33.50;;;13.97;;
72235;SDS011;60146;52.498;13.462;2023-04-15T01:36:05;32.87;;;14.00;;
72235;SDS011;60146;52.498;13.462;2023-04-15T01:38:32;39.77;;;14.43;;
72235;SDS011;60146;52.498;13.462;2023-04-15T01:40:58;34.10;;;14.50;;
72235;SDS011;60146;52.498;13.462;2023-04-15T01:43:23;38.13;;;15.30;;
72235;SDS011;60146;52.498;13.462;2023-04-15T01:45:49;32.83;;;13.47;;
72235;SDS011;60146;52.498;13.462;2023-04-15T01:48:15;37.47;;;14.73;;
72235;SDS011;60146;52.498;13.462;2023-04-15T01:50:40;40.23;;;16.00;;
72235;SDS011;60146;52.498;13.462;2023-04-15T01:53:07;37.33;;;14.93;;
72235;SDS011;60146;52.498;13.462;2023-04-15T01:55:32;37.17;;;15.07;;
72235;SDS011;60146;52.498;13.462;2023-04-15T01:57:58;39.53;;;15.63;;
72235;SDS011;60146;52.498;13.462;2023-04-15T02:00:23;34.13;;;14.37;;
72235;SDS011;60146;52.498;13.462;2023-04-15T02:02:48;40.03;;;15.23;;
72235;SDS011;60146;52.498;13.462;2023-04-15T02:05:14;40.63;;;15.63;;
72235;SDS011;60146;52.498;13.462;2023-04-15T02:07:41;35.40;;;13.97;;
72235;SDS011;60146;52.498;13.462;2023-04-15T02:10:07;37.90;;;15.27;;
72235;SDS011;60146;52.498;13.462;2023-04-15T02:12:33;35.33;;;13.83;;
72235;SDS011;60146;52.498;13.462;2023-04-15T02:14:58;35.63;;;14.70;;
72235;SDS011;60146;52.498;13.462;2023-04-15T02:17:24;36.97;;;14.60;;
72235;SDS011;60146;52.498;13.462;2023-04-15T02:19:49;40.93;;;15.17;;
72235;SDS011;60146;52.498;13.462;2023-04-15T02:22:14;39.27;;;14.50;;
72235;SDS011;60146;52.498;13.462;2023-04-15T02:24:42;36.37;;;14.43;;
72235;SDS011;60146;52.498;13.462;2023-04-15T02:27:08;37.83;;;15.20;;
72235;SDS011;60146;52.498;13.462;2023-04-15T02:29:33;35.50;;;14.23;;
72235;SDS011;60146;52.498;13.462;2023-04-15T02:31:59;35.20;;;14.37;;
72235;SDS011;60146;52.498;13.462;2023-04-15T02:34:24;38.23;;;14.33;;
72235;SDS011;60146;52.498;13.462;2023-04-15T02:36:51;36.00;;;14.47;;
72235;SDS011;60146;52.498;13.462;2023-04-15T02:39:21;35.45;;;13.57;;
72235;SDS011;60146;52.498;13.462;2023-04-15T02:41:46;38.00;;;14.47;;
72235;SDS011;60146;52.498;13.462;2023-04-15T02:44:15;35.30;;;14.93;;
72235;SDS011;60146;52.498;13.462;2023-04-15T02:46:42;36.80;;;14.23;;
72235;SDS011;60146;52.498;13.462;2023-04-15T02:49:08;35.30;;;14.47;;
72235;SDS011;60146;52.498;13.462;2023-04-15T02:51:34;39.97;;;14.97;;
72235;SDS011;60146;52.498;13.462;2023-04-15T02:54:00;32.67;;;15.27;;
72235;SDS011;60146;52.498;13.462;2023-04-15T02:56:25;37.33;;;15.17;;
72235;SDS011;60146;52.498;13.462;2023-04-15T02:58:51;38.37;;;14.43;;
72235;SDS011;60146;52.498;13.462;2023-04-15T03:01:20;33.47;;;13.70;;
72235;SDS011;60146;52.498;13.462;2023-04-15T03:03:46;38.00;;;14.27;;
72235;SDS011;60146;52.498;13.462;2023-04-15T03:06:11;34.40;;;14.63;;
72235;SDS011;60146;52.498;13.462;2023-04-15T03:08:36;38.33;;;14.93;;
72235;SDS011;60146;52.498;13.462;2023-04-15T03:11:02;33.17;;;14.20;;
72235;SDS011;60146;52.498;13.462;2023-04-15T03:13:28;32.53;;;13.50;;
72235;SDS011;60146;52.498;13.462;2023-04-15T03:15:53;34.30;;;13.63;;
72235;SDS011;60146;52.498;13.462;2023-04-15T03:18:19;33.47;;;13.83;;
72235;SDS011;60146;52.498;13.462;2023-04-15T03:20:44;36.30;;;14.07;;
72235;SDS011;60146;52.498;13.462;2023-04-15T03:23:10;36.37;;;13.27;;
72235;SDS011;60146;52.498;13.462;2023-04-15T03:25:35;35.03;;;13.33;;
72235;SDS011;60146;52.498;13.462;2023-04-15T03:28:01;36.40;;;14.17;;
72235;SDS011;60146;52.498;13.462;2023-04-15T03:30:27;30.43;;;13.77;;
72235;SDS011;60146;52.498;13.462;2023-04-15T03:32:53;38.43;;;14.40;;
72235;SDS011;60146;52.498;13.462;2023-04-15T03:35:18;35.43;;;14.43;;
72235;SDS011;60146;52.498;13.462;2023-04-15T03:37:43;31.43;;;13.30;;
72235;SDS011;60146;52.498;13.462;2023-04-15T03:40:09;34.80;;;13.57;;
72235;SDS011;60146;52.498;13.462;2023-04-15T03:42:34;30.30;;;14.00;;
72235;SDS011;60146;52.498;13.462;2023-04-15T03:45:00;32.00;;;13.17;;
72235;SDS011;60146;52.498;13.462;2023-04-15T03:47:25;37.23;;;13.73;;
72235;SDS011;60146;52.498;13.462;2023-04-15T03:49:51;28.90;;;12.97;;
72235;SDS011;60146;52.498;13.462;2023-04-15T03:52:16;34.67;;;13.50;;
72235;SDS011;60146;52.498;13.462;2023-04-15T03:54:41;29.33;;;12.57;;
72235;SDS011;60146;52.498;13.462;2023-04-15T03:57:07;33.40;;;13.20;;
72235;SDS011;60146;52.498;13.462;2023-04-15T03:59:32;30.07;;;12.13;;
72235;SDS011;60146;52.498;13.462;2023-04-15T04:01:58;31.63;;;12.80;;
72235;SDS011;60146;52.498;13.462;2023-04-15T04:04:23;31.27;;;13.37;;
72235;SDS011;60146;52.498;13.462;2023-04-15T04:06:48;29.87;;;12.13;;
72235;SDS011;60146;52.498;13.462;2023-04-15T04:09:14;33.13;;;12.47;;
72235;SDS011;60146;52.498;13.462;2023-04-15T04:11:39;30.30;;;12.57;;
72235;SDS011;60146;52.498;13.462;2023-04-15T04:14:05;32.53;;;13.20;;
72235;SDS011;60146;52.498;13.462;2023-04-15T04:16:30;30.27;;;12.67;;
72235;SDS011;60146;52.498;13.462;2023-04-15T04:18:55;27.00;;;11.83;;
72235;SDS011;60146;52.498;13.462;2023-04-15T04:21:21;25.10;;;11.50;;
72235;SDS011;60146;52.498;13.462;2023-04-15T04:23:46;32.93;;;12.57;;
72235;SDS011;60146;52.498;13.462;2023-04-15T04:26:12;27.27;;;12.57;;
72235;SDS011;60146;52.498;13.462;2023-04-15T04:28:37;25.97;;;12.07;;
72235;SDS011;60146;52.498;13.462;2023-04-15T04:31:05;26.30;;;11.63;;
72235;SDS011;60146;52.498;13.462;2023-04-15T04:33:31;30.23;;;12.20;;
72235;SDS011;60146;52.498;13.462;2023-04-15T04:35:57;27.03;;;12.17;;
72235;SDS011;60146;52.498;13.462;2023-04-15T04:38:22;27.17;;;11.63;;
72235;SDS011;60146;52.498;13.462;2023-04-15T04:40:47;28.10;;;11.97;;
72235;SDS011;60146;52.498;13.462;2023-04-15T04:43:13;23.63;;;11.87;;
72235;SDS011;60146;52.498;13.462;2023-04-15T04:45:39;22.30;;;10.90;;
72235;SDS011;60146;52.498;13.462;2023-04-15T04:48:05;26.27;;;11.43;;
72235;SDS011;60146;52.498;13.462;2023-04-15T04:50:32;26.50;;;11.67;;
72235;SDS011;60146;52.498;13.462;2023-04-15T04:52:59;27.23;;;11.27;;
72235;SDS011;60146;52.498;13.462;2023-04-15T04:55:24;22.50;;;10.93;;
72235;SDS011;60146;52.498;13.462;2023-04-15T04:57:51;23.43;;;11.47;;
72235;SDS011;60146;52.498;13.462;2023-04-15T05:00:17;23.97;;;11.67;;
72235;SDS011;60146;52.498;13.462;2023-04-15T05:02:43;23.67;;;10.63;;
72235;SDS011;60146;52.498;13.462;2023-04-15T05:05:09;21.03;;;10.03;;
72235;SDS011;60146;52.498;13.462;2023-04-15T05:07:36;22.03;;;10.70;;
72235;SDS011;60146;52.498;13.462;2023-04-15T05:10:02;22.67;;;10.60;;
72235;SDS011;60146;52.498;13.462;2023-04-15T05:12:28;23.93;;;11.17;;
72235;SDS011;60146;52.498;13.462;2023-04-15T05:14:53;21.77;;;9.97;;
72235;SDS011;60146;52.498;13.462;2023-04-15T05:17:18;20.17;;;9.80;;
72235;SDS011;60146;52.498;13.462;2023-04-15T05:19:43;20.07;;;9.77;;
72235;SDS011;60146;52.498;13.462;2023-04-15T05:22:09;23.17;;;10.13;;
72235;SDS011;60146;52.498;13.462;2023-04-15T05:24:34;20.47;;;10.27;;
72235;SDS011;60146;52.498;13.462;2023-04-15T05:27:00;22.30;;;9.60;;
72235;SDS011;60146;52.498;13.462;2023-04-15T05:29:26;20.27;;;9.97;;
72235;SDS011;60146;52.498;13.462;2023-04-15T05:31:51;18.50;;;9.57;;
72235;SDS011;60146;52.498;13.462;2023-04-15T05:34:16;20.63;;;9.67;;
72235;SDS011;60146;52.498;13.462;2023-04-15T05:36:42;17.97;;;8.87;;
72235;SDS011;60146;52.498;13.462;2023-04-15T05:39:07;20.53;;;8.80;;
72235;SDS011;60146;52.498;13.462;2023-04-15T05:41:33;21.33;;;9.97;;
72235;SDS011;60146;52.498;13.462;2023-04-15T05:43:58;19.83;;;9.40;;
72235;SDS011;60146;52.498;13.462;2023-04-15T05:46:24;19.17;;;9.03;;
72235;SDS011;60146;52.498;13.462;2023-04-15T05:48:49;18.07;;;8.73;;
72235;SDS011;60146;52.498;13.462;2023-04-15T05:51:14;20.20;;;8.90;;
72235;SDS011;60146;52.498;13.462;2023-04-15T05:53:40;18.47;;;9.33;;
72235;SDS011;60146;52.498;13.462;2023-04-15T05:56:06;17.70;;;8.83;;
72235;SDS011;60146;52.498;13.462;2023-04-15T05:58:31;17.30;;;8.40;;
72235;SDS011;60146;52.498;13.462;2023-04-15T06:00:57;17.70;;;8.83;;
72235;SDS011;60146;52.498;13.462;2023-04-15T06:03:22;17.90;;;8.73;;
72235;SDS011;60146;52.498;13.462;2023-04-15T06:05:47;18.33;;;9.07;;
72235;SDS011;60146;52.498;13.462;2023-04-15T06:08:13;20.20;;;8.17;;
72235;SDS011;60146;52.498;13.462;2023-04-15T06:10:38;14.07;;;8.13;;
72235;SDS011;60146;52.498;13.462;2023-04-15T06:13:04;17.03;;;8.50;;
72235;SDS011;60146;52.498;13.462;2023-04-15T06:15:32;17.27;;;8.40;;
72235;SDS011;60146;52.498;13.462;2023-04-15T06:17:57;14.03;;;7.50;;
72235;SDS011;60146;52.498;13.462;2023-04-15T06:20:23;13.93;;;7.63;;
72235;SDS011;60146;52.498;13.462;2023-04-15T06:22:48;16.97;;;8.20;;
72235;SDS011;60146;52.498;13.462;2023-04-15T06:25:13;15.80;;;8.00;;
72235;SDS011;60146;52.498;13.462;2023-04-15T06:27:39;18.60;;;7.77;;
72235;SDS011;60146;52.498;13.462;2023-04-15T06:30:05;15.40;;;8.07;;
72235;SDS011;60146;52.498;13.462;2023-04-15T06:32:32;16.50;;;7.50;;
72235;SDS011;60146;52.498;13.462;2023-04-15T06:34:57;13.87;;;7.97;;
72235;SDS011;60146;52.498;13.462;2023-04-15T06:37:27;18.73;;;8.43;;
72235;SDS011;60146;52.498;13.462;2023-04-15T06:39:52;18.60;;;8.23;;
72235;SDS011;60146;52.498;13.462;2023-04-15T06:42:17;16.97;;;8.20;;
72235;SDS011;60146;52.498;13.462;2023-04-15T06:44:43;15.10;;;7.90;;
72235;SDS011;60146;52.498;13.462;2023-04-15T06:47:08;16.10;;;8.03;;
72235;SDS011;60146;52.498;13.462;2023-04-15T06:49:34;14.13;;;7.53;;
72235;SDS011;60146;52.498;13.462;2023-04-15T06:51:59;18.77;;;8.03;;
72235;SDS011;60146;52.498;13.462;2023-04-15T06:54:25;16.77;;;8.17;;
72235;SDS011;60146;52.498;13.462;2023-04-15T06:56:51;14.27;;;7.40;;
72235;SDS011;60146;52.498;13.462;2023-04-15T06:59:17;13.23;;;7.53;;
72235;SDS011;60146;52.498;13.462;2023-04-15T07:01:42;12.43;;;6.90;;
72235;SDS011;60146;52.498;13.462;2023-04-15T07:04:08;14.53;;;7.77;;
72235;SDS011;60146;52.498;13.462;2023-04-15T07:06:33;14.17;;;7.27;;
72235;SDS011;60146;52.498;13.462;2023-04-15T07:08:59;12.43;;;7.33;;
72235;SDS011;60146;52.498;13.462;2023-04-15T07:11:25;14.90;;;6.83;;
72235;SDS011;60146;52.498;13.462;2023-04-15T07:13:51;13.70;;;7.07;;
72235;SDS011;60146;52.498;13.462;2023-04-15T07:16:16;14.77;;;6.90;;
72235;SDS011;60146;52.498;13.462;2023-04-15T07:18:42;12.77;;;7.97;;
72235;SDS011;60146;52.498;13.462;2023-04-15T07:21:07;10.93;;;6.80;;
72235;SDS011;60146;52.498;13.462;2023-04-15T07:23:33;10.80;;;7.03;;
72235;SDS011;60146;52.498;13.462;2023-04-15T07:25:58;14.70;;;7.10;;
72235;SDS011;60146;52.498;13.462;2023-04-15T07:28:24;13.77;;;6.77;;
72235;SDS011;60146;52.498;13.462;2023-04-15T07:30:49;12.17;;;7.37;;
72235;SDS011;60146;52.498;13.462;2023-04-15T07:33:15;12.20;;;7.03;;
72235;SDS011;60146;52.498;13.462;2023-04-15T07:35:40;12.77;;;6.97;;
72235;SDS011;60146;52.498;13.462;2023-04-15T07:38:05;15.00;;;7.70;;
72235;SDS011;60146;52.498;13.462;2023-04-15T07:40:31;15.60;;;7.73;;
72235;SDS011;60146;52.498;13.462;2023-04-15T07:42:56;12.97;;;7.90;;
72235;SDS011;60146;52.498;13.462;2023-04-15T07:45:22;16.10;;;8.07;;
72235;SDS011;60146;52.498;13.462;2023-04-15T07:47:48;19.57;;;8.27;;
72235;SDS011;60146;52.498;13.462;2023-04-15T07:50:14;19.63;;;8.50;;
72235;SDS011;60146;52.498;13.462;2023-04-15T07:52:40;13.97;;;7.80;;
72235;SDS011;60146;52.498;13.462;2023-04-15T07:55:07;14.50;;;7.73;;
72235;SDS011;60146;52.498;13.462;2023-04-15T07:57:33;14.57;;;7.50;;
72235;SDS011;60146;52.498;13.462;2023-04-15T08:00:02;15.20;;;7.75;;
72235;SDS011;60146;52.498;13.462;2023-04-15T08:02:31;14.48;;;7.97;;
72235;SDS011;60146;52.498;13.462;2023-04-15T08:04:57;16.03;;;8.00;;
72235;SDS011;60146;52.498;13.462;2023-04-15T08:07:22;15.20;;;7.80;;
72235;SDS011;60146;52.498;13.462;2023-04-15T08:09:49;16.17;;;8.40;;
72235;SDS011;60146;52.498;13.462;2023-04-15T08:12:14;17.10;;;8.17;;
72235;SDS011;60146;52.498;13.462;2023-04-15T08:14:40;12.90;;;7.67;;
72235;SDS011;60146;52.498;13.462;2023-04-15T08:17:05;14.83;;;8.30;;
72235;SDS011;60146;52.498;13.462;2023-04-15T08:19:31;16.10;;;8.23;;
72235;SDS011;60146;52.498;13.462;2023-04-15T08:21:56;17.00;;;9.10;;
72235;SDS011;60146;52.498;13.462;2023-04-15T08:24:22;17.30;;;8.40;;
72235;SDS011;60146;52.498;13.462;2023-04-15T08:26:48;17.00;;;8.57;;
72235;SDS011;60146;52.498;13.462;2023-04-15T08:29:13;15.60;;;8.53;;
72235;SDS011;60146;52.498;13.462;2023-04-15T08:31:39;15.40;;;8.37;;
72235;SDS011;60146;52.498;13.462;2023-04-15T08:34:04;13.23;;;7.87;;
72235;SDS011;60146;52.498;13.462;2023-04-15T08:36:29;13.57;;;8.00;;
72235;SDS011;60146;52.498;13.462;2023-04-15T08:38:56;17.47;;;9.20;;
72235;SDS011;60146;52.498;13.462;2023-04-15T08:41:23;17.23;;;8.47;;
72235;SDS011;60146;52.498;13.462;2023-04-15T08:43:58;14.50;;;8.63;;
72235;SDS011;60146;52.498;13.462;2023-04-15T08:46:27;18.77;;;9.23;;
72235;SDS011;60146;52.498;13.462;2023-04-15T08:48:58;14.60;;;8.53;;
72235;SDS011;60146;52.498;13.462;2023-04-15T08:51:25;15.17;;;8.70;;
72235;SDS011;60146;52.498;13.462;2023-04-15T08:53:51;15.80;;;8.33;;
72235;SDS011;60146;52.498;13.462;2023-04-15T08:56:17;17.53;;;9.23;;
72235;SDS011;60146;52.498;13.462;2023-04-15T08:58:43;16.20;;;8.90;;
72235;SDS011;60146;52.498;13.462;2023-04-15T09:01:10;14.57;;;8.73;;
72235;SDS011;60146;52.498;13.462;2023-04-15T09:03:36;16.47;;;8.90;;
72235;SDS011;60146;52.498;13.462;2023-04-15T09:06:03;16.40;;;8.87;;
72235;SDS011;60146;52.498;13.462;2023-04-15T09:08:32;16.83;;;9.67;;
72235;SDS011;60146;52.498;13.462;2023-04-15T09:10:59;14.53;;;8.80;;
72235;SDS011;60146;52.498;13.462;2023-04-15T09:13:25;15.53;;;8.50;;
72235;SDS011;60146;52.498;13.462;2023-04-15T09:15:51;15.27;;;8.57;;
72235;SDS011;60146;52.498;13.462;2023-04-15T09:18:27;15.10;;;8.37;;
72235;SDS011;60146;52.498;13.462;2023-04-15T09:20:54;15.43;;;8.70;;
72235;SDS011;60146;52.498;13.462;2023-04-15T09:23:21;16.00;;;8.67;;
72235;SDS011;60146;52.498;13.462;2023-04-15T09:25:46;16.20;;;8.20;;
72235;SDS011;60146;52.498;13.462;2023-04-15T09:28:13;14.47;;;8.47;;
72235;SDS011;60146;52.498;13.462;2023-04-15T09:30:38;14.10;;;7.77;;
72235;SDS011;60146;52.498;13.462;2023-04-15T09:33:10;15.03;;;8.50;;
72235;SDS011;60146;52.498;13.462;2023-04-15T09:35:38;13.77;;;8.33;;
72235;SDS011;60146;52.498;13.462;2023-04-15T09:38:05;14.33;;;8.10;;
72235;SDS011;60146;52.498;13.462;2023-04-15T09:40:34;12.33;;;7.63;;
72235;SDS011;60146;52.498;13.462;2023-04-15T09:43:03;16.08;;;8.52;;
72235;SDS011;60146;52.498;13.462;2023-04-15T09:45:30;20.40;;;8.80;;
72235;SDS011;60146;52.498;13.462;2023-04-15T09:47:57;13.00;;;7.90;;
72235;SDS011;60146;52.498;13.462;2023-04-15T09:50:24;12.43;;;7.63;;
72235;SDS011;60146;52.498;13.462;2023-04-15T09:52:51;13.80;;;7.80;;
72235;SDS011;60146;52.498;13.462;2023-04-15T09:55:17;14.13;;;8.03;;
72235;SDS011;60146;52.498;13.462;2023-04-15T09:57:42;14.73;;;8.30;;
72235;SDS011;60146;52.498;13.462;2023-04-15T10:00:14;16.33;;;8.80;;
72235;SDS011;60146;52.498;13.462;2023-04-15T10:02:40;15.20;;;8.20;;
72235;SDS011;60146;52.498;13.462;2023-04-15T10:05:06;17.00;;;9.03;;
72235;SDS011;60146;52.498;13.462;2023-04-15T10:07:34;14.97;;;8.77;;
72235;SDS011;60146;52.498;13.462;2023-04-15T10:10:00;17.00;;;8.70;;
72235;SDS011;60146;52.498;13.462;2023-04-15T10:12:27;15.10;;;8.43;;
72235;SDS011;60146;52.498;13.462;2023-04-15T10:15:00;16.40;;;9.13;;
72235;SDS011;60146;52.498;13.462;2023-04-15T10:17:32;16.17;;;8.33;;
72235;SDS011;60146;52.498;13.462;2023-04-15T10:20:02;15.23;;;8.43;;
72235;SDS011;60146;52.498;13.462;2023-04-15T10:22:29;16.50;;;8.57;;
72235;SDS011;60146;52.498;13.462;2023-04-15T10:24:56;18.00;;;9.13;;
72235;SDS011;60146;52.498;13.462;2023-04-15T10:27:22;15.07;;;8.67;;
72235;SDS011;60146;52.498;13.462;2023-04-15T10:29:50;15.33;;;8.70;;
72235;SDS011;60146;52.498;13.462;2023-04-15T10:32:17;16.10;;;9.10;;
72235;SDS011;60146;52.498;13.462;2023-04-15T10:34:45;15.90;;;9.00;;
72235;SDS011;60146;52.498;13.462;2023-04-15T10:37:12;16.17;;;8.63;;
72235;SDS011;60146;52.498;13.462;2023-04-15T10:39:45;14.97;;;8.53;;
72235;SDS011;60146;52.498;13.462;2023-04-15T10:42:12;16.80;;;8.17;;
72235;SDS011;60146;52.498;13.462;2023-04-15T10:44:42;14.33;;;8.27;;
72235;SDS011;60146;52.498;13.462;2023-04-15T10:47:10;15.43;;;8.20;;
72235;SDS011;60146;52.498;13.462;2023-04-15T10:49:46;12.93;;;7.97;;
72235;SDS011;60146;52.498;13.462;2023-04-15T10:52:14;18.23;;;8.43;;
72235;SDS011;60146;52.498;13.462;2023-04-15T10:54:41;13.97;;;8.27;;
72235;SDS011;60146;52.498;13.462;2023-04-15T10:57:08;13.97;;;8.10;;
72235;SDS011;60146;52.498;13.462;2023-04-15T11:00:00;15.40;;;7.63;;
72235;SDS011;60146;52.498;13.462;2023-04-15T11:05:16;13.20;;;7.90;;
72235;SDS011;60146;52.498;13.462;2023-04-15T11:12:52;13.37;;;7.77;;
72235;SDS011;60146;52.498;13.462;2023-04-15T11:15:37;13.87;;;8.23;;
72235;SDS011;60146;52.498;13.462;2023-04-15T11:18:24;13.37;;;6.83;;
72235;SDS011;60146;52.498;13.462;2023-04-15T11:20:52;11.93;;;7.57;;
72235;SDS011;60146;52.498;13.462;2023-04-15T11:23:28;13.03;;;7.50;;
72235;SDS011;60146;52.498;13.462;2023-04-15T11:25:58;11.70;;;7.20;;
72235;SDS011;60146;52.498;13.462;2023-04-15T11:28:25;11.67;;;6.43;;
72235;SDS011;60146;52.498;13.462;2023-04-15T11:30:52;10.77;;;6.60;;
72235;SDS011;60146;52.498;13.462;2023-04-15T11:33:19;12.90;;;6.83;;
72235;SDS011;60146;52.498;13.462;2023-04-15T11:35:46;12.97;;;7.07;;
72235;SDS011;60146;52.498;13.462;2023-04-15T11:38:12;11.80;;;7.17;;
72235;SDS011;60146;52.498;13.462;2023-04-15T11:40:39;11.17;;;6.87;;
72235;SDS011;60146;52.498;13.462;2023-04-15T11:43:09;11.87;;;7.30;;
72235;SDS011;60146;52.498;13.462;2023-04-15T11:45:35;13.70;;;7.25;;
72235;SDS011;60146;52.498;13.462;2023-04-15T11:48:06;11.47;;;6.87;;
72235;SDS011;60146;52.498;13.462;2023-04-15T11:50:35;11.40;;;7.10;;
72235;SDS011;60146;52.498;13.462;2023-04-15T11:53:04;11.90;;;7.18;;
72235;SDS011;60146;52.498;13.462;2023-04-15T11:55:32;12.60;;;7.17;;
72235;SDS011;60146;52.498;13.462;2023-04-15T11:58:22;11.87;;;7.10;;
72235;SDS011;60146;52.498;13.462;2023-04-15T12:00:50;12.90;;;7.33;;
72235;SDS011;60146;52.498;13.462;2023-04-15T12:03:21;12.90;;;7.60;;
72235;SDS011;60146;52.498;13.462;2023-04-15T12:13:52;13.33;;;6.93;;
72235;SDS011;60146;52.498;13.462;2023-04-15T12:16:19;11.70;;;7.23;;
72235;SDS011;60146;52.498;13.462;2023-04-15T12:18:45;12.03;;;7.17;;
72235;SDS011;60146;52.498;13.462;2023-04-15T12:21:12;10.93;;;6.80;;
72235;SDS011;60146;52.498;13.462;2023-04-15T12:23:51;12.30;;;6.60;;
72235;SDS011;60146;52.498;13.462;2023-04-15T12:26:32;11.10;;;6.97;;
72235;SDS011;60146;52.498;13.462;2023-04-15T12:31:28;10.85;;;6.45;;
72235;SDS011;60146;52.498;13.462;2023-04-15T12:33:54;9.93;;;5.87;;
72235;SDS011;60146;52.498;13.462;2023-04-15T12:36:21;11.77;;;7.10;;
72235;SDS011;60146;52.498;13.462;2023-04-15T12:38:47;10.47;;;6.30;;
72235;SDS011;60146;52.498;13.462;2023-04-15T12:41:12;11.10;;;6.40;;
72235;SDS011;60146;52.498;13.462;2023-04-15T12:43:38;9.50;;;6.40;;
72235;SDS011;60146;52.498;13.462;2023-04-15T12:46:03;10.53;;;6.40;;
72235;SDS011;60146;52.498;13.462;2023-04-15T12:48:29;12.63;;;6.10;;
72235;SDS011;60146;52.498;13.462;2023-04-15T12:50:54;11.27;;;6.43;;
72235;SDS011;60146;52.498;13.462;2023-04-15T12:53:20;10.10;;;5.70;;
72235;SDS011;60146;52.498;13.462;2023-04-15T12:55:45;9.60;;;5.83;;
72235;SDS011;60146;52.498;13.462;2023-04-15T12:58:11;9.63;;;5.70;;
72235;SDS011;60146;52.498;13.462;2023-04-15T13:00:36;10.53;;;5.60;;
72235;SDS011;60146;52.498;13.462;2023-04-15T13:03:02;9.80;;;5.17;;
72235;SDS011;60146;52.498;13.462;2023-04-15T13:05:28;9.77;;;5.77;;
72235;SDS011;60146;52.498;13.462;2023-04-15T13:07:53;8.17;;;5.23;;
72235;SDS011;60146;52.498;13.462;2023-04-15T13:10:18;8.83;;;5.10;;
72235;SDS011;60146;52.498;13.462;2023-04-15T13:12:44;10.13;;;5.50;;
72235;SDS011;60146;52.498;13.462;2023-04-15T13:15:10;8.07;;;4.80;;
72235;SDS011;60146;52.498;13.462;2023-04-15T13:17:37;9.33;;;5.20;;
72235;SDS011;60146;52.498;13.462;2023-04-15T13:20:02;8.17;;;4.93;;
72235;SDS011;60146;52.498;13.462;2023-04-15T13:22:28;11.23;;;6.03;;
72235;SDS011;60146;52.498;13.462;2023-04-15T13:24:53;9.77;;;6.00;;
72235;SDS011;60146;52.498;13.462;2023-04-15T13:27:20;10.13;;;6.30;;
72235;SDS011;60146;52.498;13.462;2023-04-15T13:29:46;10.63;;;6.10;;
72235;SDS011;60146;52.498;13.462;2023-04-15T13:32:11;10.23;;;5.90;;
72235;SDS011;60146;52.498;13.462;2023-04-15T13:34:36;8.63;;;5.40;;
72235;SDS011;60146;52.498;13.462;2023-04-15T13:37:05;8.20;;;4.70;;
72235;SDS011;60146;52.498;13.462;2023-04-15T13:39:31;7.65;;;4.13;;
72235;SDS011;60146;52.498;13.462;2023-04-15T13:41:57;9.23;;;4.73;;
72235;SDS011;60146;52.498;13.462;2023-04-15T13:44:22;11.27;;;4.60;;
72235;SDS011;60146;52.498;13.462;2023-04-15T13:46:48;8.70;;;5.43;;
72235;SDS011;60146;52.498;13.462;2023-04-15T13:49:13;7.77;;;4.83;;
72235;SDS011;60146;52.498;13.462;2023-04-15T13:51:38;9.00;;;4.73;;
72235;SDS011;60146;52.498;13.462;2023-04-15T13:54:04;7.37;;;4.90;;
72235;SDS011;60146;52.498;13.462;2023-04-15T13:56:30;7.90;;;4.77;;
72235;SDS011;60146;52.498;13.462;2023-04-15T13:58:55;6.33;;;4.20;;
72235;SDS011;60146;52.498;13.462;2023-04-15T14:01:23;7.63;;;4.50;;
72235;SDS011;60146;52.498;13.462;2023-04-15T14:03:49;7.50;;;5.13;;
72235;SDS011;60146;52.498;13.462;2023-04-15T14:06:14;8.07;;;5.23;;
72235;SDS011;60146;52.498;13.462;2023-04-15T14:08:40;9.63;;;5.00;;
72235;SDS011;60146;52.498;13.462;2023-04-15T14:11:05;10.37;;;5.90;;
72235;SDS011;60146;52.498;13.462;2023-04-15T14:13:30;9.03;;;5.63;;
72235;SDS011;60146;52.498;13.462;2023-04-15T14:15:56;9.33;;;5.50;;
72235;SDS011;60146;52.498;13.462;2023-04-15T14:18:21;9.30;;;5.73;;
72235;SDS011;60146;52.498;13.462;2023-04-15T14:20:46;9.57;;;5.73;;
72235;SDS011;60146;52.498;13.462;2023-04-15T14:23:12;9.27;;;5.50;;
72235;SDS011;60146;52.498;13.462;2023-04-15T14:25:37;8.63;;;5.07;;
72235;SDS011;60146;52.498;13.462;2023-04-15T14:28:05;7.43;;;4.70;;
72235;SDS011;60146;52.498;13.462;2023-04-15T14:30:31;11.10;;;5.83;;
72235;SDS011;60146;52.498;13.462;2023-04-15T14:32:56;11.60;;;6.70;;